createdAt,value
2024-04-16T00:00:44.613Z,1.95
2024-04-16T00:01:44.768Z,2.20
2024-04-16T00:02:44.788Z,2.04
2024-04-16T00:03:44.883Z,2.39
2024-04-16T00:04:45.031Z,2.44
2024-04-16T00:05:45.068Z,2.25
2024-04-16T00:06:45.164Z,2.53
2024-04-16T00:07:45.262Z,2.31
2024-04-16T00:08:45.349Z,1.76
2024-04-16T00:09:45.429Z,2.04
2024-04-16T00:10:45.562Z,2.13
2024-04-16T00:11:45.639Z,2.00
2024-04-16T00:12:45.710Z,1.93
2024-04-16T00:13:45.803Z,1.95
2024-04-16T00:14:45.925Z,2.13
2024-04-16T00:15:45.992Z,1.70
2024-04-16T00:16:46.163Z,2.04
2024-04-16T00:17:46.322Z,1.85
2024-04-16T00:18:46.307Z,1.96
2024-04-16T00:19:46.380Z,1.84
2024-04-16T00:20:46.461Z,1.83
2024-04-16T00:21:46.575Z,1.33
2024-04-16T00:22:46.622Z,1.30
2024-04-16T00:23:46.754Z,1.39
2024-04-16T00:24:46.843Z,1.75
2024-04-16T00:25:46.924Z,1.46
2024-04-16T00:26:47.043Z,1.45
2024-04-16T00:27:47.132Z,1.96
2024-04-16T00:28:47.238Z,2.03
2024-04-16T00:29:47.346Z,2.13
2024-04-16T00:30:47.430Z,1.73
2024-04-16T00:31:47.576Z,1.61
2024-04-16T00:32:47.639Z,1.50
2024-04-16T00:33:47.734Z,1.41
2024-04-16T00:34:47.843Z,1.89
2024-04-16T00:35:48.044Z,2.28
2024-04-16T00:36:48.024Z,1.79
2024-04-16T00:37:48.112Z,2.41
2024-04-16T00:38:48.249Z,1.91
2024-04-16T00:39:48.334Z,1.94
2024-04-16T00:40:48.393Z,1.89
2024-04-16T00:41:48.507Z,2.30
2024-04-16T00:42:48.581Z,2.44
2024-04-16T00:43:48.668Z,2.56
2024-04-16T00:44:48.758Z,2.50
2024-04-16T00:45:48.901Z,2.47
2024-04-16T00:46:49.035Z,2.56
2024-04-16T00:47:49.109Z,2.69
2024-04-16T00:48:49.178Z,2.25
2024-04-16T00:49:49.268Z,3.05
2024-04-16T00:50:49.339Z,2.40
2024-04-16T00:51:49.509Z,3.12
2024-04-16T00:52:49.576Z,2.83
2024-04-16T00:53:49.655Z,4.55
2024-04-16T00:54:49.750Z,2.57
2024-04-16T00:55:49.824Z,2.38
2024-04-16T00:56:49.934Z,2.69
2024-04-16T00:57:50.038Z,2.98
2024-04-16T00:58:50.112Z,2.96
2024-04-16T00:59:50.258Z,3.46
2024-04-16T01:00:50.393Z,2.59
2024-04-16T01:01:50.468Z,2.94
2024-04-16T01:02:50.567Z,2.77
2024-04-16T01:03:50.714Z,2.78
2024-04-16T01:04:50.778Z,3.10
2024-04-16T01:05:50.844Z,2.55
2024-04-16T01:06:50.984Z,3.42
2024-04-16T01:07:51.028Z,3.31
2024-04-16T01:08:51.161Z,3.43
2024-04-16T01:09:51.248Z,3.34
2024-04-16T01:10:51.381Z,2.78
2024-04-16T01:11:51.429Z,3.13
2024-04-16T01:12:51.532Z,3.38
2024-04-16T01:13:51.612Z,3.23
2024-04-16T01:14:51.750Z,3.61
2024-04-16T01:15:51.855Z,2.89
2024-04-16T01:16:51.932Z,3.14
2024-04-16T01:17:52.104Z,2.96
2024-04-16T01:18:52.135Z,3.10
2024-04-16T01:19:52.242Z,2.86
2024-04-16T01:20:52.347Z,3.23
2024-04-16T01:21:52.459Z,2.33
2024-04-16T01:22:52.543Z,2.29
2024-04-16T01:23:52.631Z,2.87
2024-04-16T01:24:52.766Z,3.05
2024-04-16T01:25:52.850Z,2.96
2024-04-16T01:26:52.956Z,2.92
2024-04-16T01:27:53.044Z,2.48
2024-04-16T01:28:53.175Z,2.25
2024-04-16T01:29:53.230Z,2.75
2024-04-16T01:30:53.335Z,2.88
2024-04-16T01:31:53.528Z,2.96
2024-04-16T01:32:53.567Z,3.04
2024-04-16T01:33:53.674Z,2.58
2024-04-16T01:34:53.737Z,3.11
2024-04-16T01:35:53.862Z,2.55
2024-04-16T01:36:53.935Z,2.43
2024-04-16T01:37:54.018Z,2.21
2024-04-16T01:38:54.112Z,2.36
2024-04-16T01:39:54.225Z,2.40
2024-04-16T01:40:54.331Z,2.32
2024-04-16T01:41:54.430Z,2.15
2024-04-16T01:42:54.517Z,2.63
2024-04-16T01:43:54.593Z,2.37
2024-04-16T01:44:54.715Z,2.39
2024-04-16T01:45:54.796Z,2.33
2024-04-16T01:46:54.907Z,2.41
2024-04-16T01:47:55.119Z,2.08
2024-04-16T01:48:56.036Z,2.46
2024-04-16T01:49:56.104Z,2.16
2024-04-16T01:50:55.160Z,1.92
2024-04-16T01:51:55.183Z,2.01
2024-04-16T01:52:55.207Z,2.19
2024-04-16T01:53:55.247Z,1.96
2024-04-16T01:54:55.293Z,2.11
2024-04-16T01:55:55.363Z,1.69
2024-04-16T01:56:55.440Z,1.52
2024-04-16T01:57:55.577Z,1.82
2024-04-16T01:58:55.635Z,1.99
2024-04-16T01:59:55.750Z,2.45
2024-04-16T02:00:55.956Z,1.64
2024-04-16T02:01:55.944Z,1.78
2024-04-16T02:02:56.017Z,1.89
2024-04-16T02:03:56.212Z,1.80
2024-04-16T02:04:56.259Z,1.56
2024-04-16T02:05:56.329Z,1.94
2024-04-16T02:06:56.403Z,1.47
2024-04-16T02:07:56.495Z,1.45
2024-04-16T02:08:56.594Z,1.49
2024-04-16T02:09:56.719Z,1.71
2024-04-16T02:10:56.824Z,1.72
2024-04-16T02:11:56.923Z,1.49
2024-04-16T02:12:57.005Z,1.27
2024-04-16T02:13:57.098Z,1.22
2024-04-16T02:14:57.226Z,1.65
2024-04-16T02:15:57.275Z,1.27
2024-04-16T02:16:57.384Z,1.64
2024-04-16T02:17:57.535Z,1.50
2024-04-16T02:18:57.565Z,1.59
2024-04-16T02:19:57.689Z,1.28
2024-04-16T02:20:57.773Z,1.56
2024-04-16T02:22:01.353Z,1.21
2024-04-16T02:22:58.854Z,1.28
2024-04-16T02:23:57.834Z,1.38
2024-04-16T02:24:57.861Z,1.27
2024-04-16T02:25:57.851Z,1.31
2024-04-16T02:26:57.832Z,1.57
2024-04-16T02:27:57.867Z,1.58
2024-04-16T02:28:57.872Z,1.45
2024-04-16T02:29:57.872Z,1.20
2024-04-16T02:30:57.890Z,1.55
2024-04-16T02:31:57.988Z,1.07
2024-04-16T02:32:58.659Z,1.24
2024-04-16T02:33:57.912Z,1.24
2024-04-16T02:34:57.948Z,1.16
2024-04-16T02:35:57.992Z,1.33
2024-04-16T02:36:58.028Z,1.40
2024-04-16T02:37:58.053Z,1.05
2024-04-16T02:38:58.091Z,1.41
2024-04-16T02:39:58.126Z,1.59
2024-04-16T02:40:58.148Z,1.27
2024-04-16T02:41:58.198Z,1.34
2024-04-16T02:42:58.219Z,1.15
2024-04-16T02:43:58.312Z,1.23
2024-04-16T02:44:58.406Z,1.23
2024-04-16T02:45:58.484Z,1.15
2024-04-16T02:46:58.628Z,1.56
2024-04-16T02:47:58.916Z,1.38
2024-04-16T02:48:58.851Z,1.20
2024-04-16T02:49:58.933Z,1.15
2024-04-16T02:50:59.022Z,1.47
2024-04-16T02:51:59.241Z,1.22
2024-04-16T02:52:59.229Z,1.24
2024-04-16T02:53:59.336Z,1.10
2024-04-16T02:54:59.475Z,1.44
2024-04-16T02:55:59.532Z,1.26
2024-04-16T02:56:59.656Z,0.87
2024-04-16T02:57:59.813Z,0.98
2024-04-16T02:58:59.816Z,1.20
2024-04-16T02:59:59.888Z,1.36
2024-04-16T03:01:00.050Z,1.35
2024-04-16T03:02:00.111Z,0.80
2024-04-16T03:03:00.270Z,1.37
2024-04-16T03:04:00.362Z,1.30
2024-04-16T03:05:00.396Z,0.91
2024-04-16T03:06:00.514Z,0.99
2024-04-16T03:07:00.639Z,0.99
2024-04-16T03:08:00.675Z,0.94
2024-04-16T03:09:00.861Z,1.15
2024-04-16T03:10:01.000Z,0.81
2024-04-16T03:11:01.088Z,1.11
2024-04-16T03:12:01.032Z,0.92
2024-04-16T03:13:01.156Z,1.22
2024-04-16T03:14:01.245Z,1.24
2024-04-16T03:15:01.354Z,1.48
2024-04-16T03:16:01.461Z,1.18
2024-04-16T03:17:01.584Z,0.86
2024-04-16T03:18:01.726Z,0.99
2024-04-16T03:19:01.780Z,1.19
2024-04-16T03:20:01.850Z,0.91
2024-04-16T03:21:02.062Z,0.89
2024-04-16T03:22:02.099Z,0.76
2024-04-16T03:23:02.117Z,1.06
2024-04-16T03:24:02.251Z,0.97
2024-04-16T03:25:02.448Z,0.78
2024-04-16T03:26:02.416Z,0.81
2024-04-16T03:27:02.513Z,0.84
2024-04-16T03:28:02.648Z,0.82
2024-04-16T03:29:02.723Z,0.92
2024-04-16T03:30:02.848Z,0.78
2024-04-16T03:31:02.932Z,0.70
2024-04-16T03:32:03.100Z,1.20
2024-04-16T03:33:03.178Z,0.85
2024-04-16T03:34:03.198Z,0.89
2024-04-16T03:35:03.296Z,0.93
2024-04-16T03:36:03.424Z,0.85
2024-04-16T03:37:03.596Z,0.94
2024-04-16T03:38:03.580Z,0.97
2024-04-16T03:39:03.797Z,0.98
2024-04-16T03:40:03.885Z,0.88
2024-04-16T03:41:03.882Z,1.01
2024-04-16T03:42:04.010Z,1.04
2024-04-16T03:43:04.144Z,0.82
2024-04-16T03:44:04.216Z,0.73
2024-04-16T03:45:04.397Z,0.70
2024-04-16T03:46:04.517Z,0.51
2024-04-16T03:47:04.527Z,1.04
2024-04-16T03:48:04.657Z,1.00
2024-04-16T03:49:04.761Z,0.84
2024-04-16T03:50:04.799Z,0.91
2024-04-16T03:51:04.890Z,0.88
2024-04-16T03:52:05.018Z,0.71
2024-04-16T03:53:05.106Z,0.59
2024-04-16T03:54:05.181Z,0.86
2024-04-16T03:55:05.298Z,0.81
2024-04-16T03:56:05.391Z,0.93
2024-04-16T03:57:05.450Z,0.70
2024-04-16T03:58:05.587Z,0.57
2024-04-16T03:59:05.673Z,0.93
2024-04-16T04:00:05.760Z,0.86
2024-04-16T04:01:05.987Z,0.74
2024-04-16T04:02:06.895Z,0.67
2024-04-16T04:03:06.078Z,0.98
2024-04-16T04:04:06.195Z,0.87
2024-04-16T04:05:06.355Z,0.90
2024-04-16T04:06:06.356Z,0.59
2024-04-16T04:07:06.476Z,0.77
2024-04-16T04:08:06.533Z,0.75
2024-04-16T04:09:06.643Z,0.58
2024-04-16T04:10:06.775Z,0.79
2024-04-16T04:11:06.891Z,0.83
2024-04-16T04:12:06.971Z,0.63
2024-04-16T04:13:07.079Z,0.91
2024-04-16T04:14:07.154Z,0.72
2024-04-16T04:15:07.279Z,1.10
2024-04-16T04:16:07.397Z,0.84
2024-04-16T04:17:07.488Z,0.70
2024-04-16T04:18:07.656Z,0.79
2024-04-16T04:19:07.727Z,0.98
2024-04-16T04:20:07.786Z,0.70
2024-04-16T04:21:07.872Z,0.93
2024-04-16T04:22:07.993Z,0.56
2024-04-16T04:23:08.099Z,0.84
2024-04-16T04:24:15.798Z,0.86
2024-04-16T04:25:09.287Z,0.56
2024-04-16T04:26:08.192Z,0.67
2024-04-16T04:27:08.188Z,0.74
2024-04-16T04:28:08.219Z,0.76
2024-04-16T04:29:08.179Z,0.80
2024-04-16T04:30:08.222Z,0.46
2024-04-16T04:31:08.233Z,0.65
2024-04-16T04:32:08.227Z,0.46
2024-04-16T04:33:08.250Z,0.57
2024-04-16T04:34:08.263Z,0.67
2024-04-16T04:35:08.350Z,0.94
2024-04-16T04:36:08.442Z,0.74
2024-04-16T04:37:08.546Z,0.90
2024-04-16T04:38:08.641Z,0.94
2024-04-16T04:39:08.747Z,0.85
2024-04-16T04:40:08.829Z,0.81
2024-04-16T04:41:08.936Z,0.79
2024-04-16T04:42:09.064Z,0.70
2024-04-16T04:43:09.220Z,0.54
2024-04-16T04:44:09.251Z,0.90
2024-04-16T04:45:09.365Z,0.63
2024-04-16T04:46:09.482Z,0.54
2024-04-16T04:47:09.583Z,0.80
2024-04-16T04:48:09.713Z,0.51
2024-04-16T04:49:17.437Z,0.72
2024-04-16T04:50:17.416Z,0.53
2024-04-16T04:51:17.419Z,0.72
2024-04-16T04:52:17.450Z,0.73
2024-04-16T04:53:17.428Z,0.68
2024-04-16T04:54:17.424Z,0.58
2024-04-16T04:55:17.472Z,0.49
2024-04-16T04:56:17.423Z,0.88
2024-04-16T04:57:17.454Z,0.54
2024-04-16T04:58:17.452Z,0.60
2024-04-16T04:59:17.472Z,0.57
2024-04-16T05:00:17.537Z,0.60
2024-04-16T05:01:40.119Z,0.75
2024-04-16T05:02:17.533Z,0.59
2024-04-16T05:03:17.445Z,0.49
2024-04-16T05:04:17.506Z,0.63
2024-04-16T05:05:17.495Z,0.50
2024-04-16T05:06:17.468Z,0.47
2024-04-16T05:07:17.494Z,0.42
2024-04-16T05:08:17.493Z,0.60
2024-04-16T05:09:17.480Z,0.54
2024-04-16T05:10:17.569Z,0.61
2024-04-16T05:11:17.536Z,0.45
2024-04-16T05:12:17.517Z,0.54
2024-04-16T05:13:17.530Z,0.41
2024-04-16T05:14:17.459Z,0.46
2024-04-16T05:15:17.505Z,0.58
2024-04-16T05:16:17.576Z,0.42
2024-04-16T05:17:17.470Z,0.68
2024-04-16T05:18:17.571Z,0.46
2024-04-16T05:19:17.564Z,0.75
2024-04-16T05:20:17.495Z,0.50
2024-04-16T05:21:17.524Z,0.48
2024-04-16T05:22:17.658Z,0.47
2024-04-16T05:23:17.711Z,0.81
2024-04-16T05:24:17.766Z,0.59
2024-04-16T05:25:17.924Z,0.50
2024-04-16T05:26:18.154Z,0.54
2024-04-16T05:27:18.113Z,0.51
2024-04-16T05:28:18.271Z,0.52
2024-04-16T05:29:18.285Z,0.61
2024-04-16T05:30:18.504Z,0.43
2024-04-16T05:31:18.650Z,0.54
2024-04-16T05:32:18.637Z,0.66
2024-04-16T05:33:18.791Z,0.60
2024-04-16T05:34:18.877Z,0.55
2024-04-16T05:35:19.744Z,0.59
2024-04-16T05:36:19.096Z,0.57
2024-04-16T05:37:19.247Z,0.51
2024-04-16T05:38:19.272Z,0.55
2024-04-16T05:39:19.378Z,0.37
2024-04-16T05:40:20.376Z,0.60
2024-04-16T05:41:19.467Z,0.78
2024-04-16T05:42:19.642Z,0.72
2024-04-16T05:43:19.795Z,0.80
2024-04-16T05:44:19.811Z,0.90
2024-04-16T05:45:44.303Z,0.86
2024-04-16T05:46:19.916Z,0.64
2024-04-16T05:47:19.950Z,0.64
2024-04-16T05:48:20.035Z,0.71
2024-04-16T05:49:19.971Z,0.98
2024-04-16T05:50:20.281Z,0.63
2024-04-16T05:51:19.891Z,0.62
2024-04-16T05:52:19.904Z,0.66
2024-04-16T05:53:19.870Z,0.77
2024-04-16T05:54:19.856Z,0.64
2024-04-16T05:55:19.882Z,0.48
2024-04-16T05:56:19.868Z,0.95
2024-04-16T05:57:19.926Z,0.48
2024-04-16T05:58:19.906Z,0.67
2024-04-16T05:59:19.994Z,0.57
2024-04-16T06:00:19.941Z,0.65
2024-04-16T06:01:19.936Z,0.83
2024-04-16T06:02:19.939Z,0.75
2024-04-16T06:03:19.953Z,0.77
2024-04-16T06:04:20.182Z,0.73
2024-04-16T06:05:20.325Z,0.91
2024-04-16T06:06:19.890Z,0.86
2024-04-16T06:07:19.925Z,0.56
2024-04-16T06:08:20.722Z,0.71
2024-04-16T06:09:19.916Z,0.87
2024-04-16T06:11:19.975Z,0.84
2024-04-16T06:12:19.987Z,0.57
2024-04-16T06:13:19.975Z,0.81
2024-04-16T06:14:19.888Z,0.82
2024-04-16T06:15:19.898Z,0.93
2024-04-16T06:16:20.392Z,0.85
2024-04-16T06:17:20.013Z,0.45
2024-04-16T06:18:29.839Z,1.16
2024-04-16T06:19:29.862Z,1.26
2024-04-16T06:20:29.861Z,0.75
2024-04-16T06:21:29.832Z,0.67
2024-04-16T06:22:29.885Z,0.59
2024-04-16T06:23:29.816Z,0.76
2024-04-16T06:24:29.828Z,0.67
2024-04-16T06:25:29.951Z,0.71
2024-04-16T06:26:29.852Z,0.75
2024-04-16T06:27:29.851Z,0.81
2024-04-16T06:28:29.931Z,0.76
2024-04-16T06:29:29.859Z,0.98
2024-04-16T06:30:29.876Z,0.93
2024-04-16T06:31:30.897Z,0.70
2024-04-16T06:32:29.884Z,1.09
2024-04-16T06:33:29.931Z,0.78
2024-04-16T06:34:29.901Z,0.88
2024-04-16T06:35:29.860Z,0.83
2024-04-16T06:36:30.025Z,0.83
2024-04-16T06:37:29.947Z,1.64
2024-04-16T06:38:29.875Z,1.62
2024-04-16T06:39:30.003Z,2.13
2024-04-16T06:40:29.931Z,2.57
2024-04-16T06:41:30.021Z,1.77
2024-04-16T06:42:29.950Z,1.59
2024-04-16T06:43:30.037Z,1.19
2024-04-16T06:44:30.026Z,1.65
2024-04-16T06:45:30.969Z,1.42
2024-04-16T06:46:30.549Z,1.54
2024-04-16T06:47:30.198Z,1.20
2024-04-16T06:48:30.202Z,1.28
2024-04-16T06:49:30.298Z,1.43
2024-04-16T06:50:30.267Z,1.26
2024-04-16T06:51:30.526Z,1.08
2024-04-16T06:52:30.404Z,0.75
2024-04-16T06:53:30.496Z,1.03
2024-04-16T06:54:30.716Z,0.88
2024-04-16T06:55:30.687Z,0.72
2024-04-16T06:56:30.824Z,2.67
2024-04-16T06:57:30.842Z,2.14
2024-04-16T06:58:31.029Z,1.21
2024-04-16T06:59:31.013Z,0.78
2024-04-16T07:00:31.100Z,1.21
2024-04-16T07:01:32.934Z,0.98
2024-04-16T07:02:33.067Z,1.27
2024-04-16T07:03:32.107Z,0.80
2024-04-16T07:04:31.219Z,1.02
2024-04-16T07:05:31.162Z,0.90
2024-04-16T07:06:31.153Z,0.36
2024-04-16T07:07:31.243Z,0.71
2024-04-16T07:08:31.175Z,1.33
2024-04-16T07:09:31.264Z,0.79
2024-04-16T07:10:31.938Z,1.07
2024-04-16T07:11:31.509Z,0.77
2024-04-16T07:12:31.559Z,0.95
2024-04-16T07:13:31.650Z,0.71
2024-04-16T07:14:31.664Z,0.73
2024-04-16T07:15:31.765Z,0.68
2024-04-16T07:16:31.891Z,1.18
2024-04-16T07:17:31.961Z,0.59
2024-04-16T07:18:32.053Z,1.03
2024-04-16T07:19:32.132Z,0.96
2024-04-16T07:20:32.204Z,0.97
2024-04-16T07:21:32.587Z,1.21
2024-04-16T07:22:32.369Z,0.94
2024-04-16T07:23:32.453Z,1.54
2024-04-16T07:24:32.552Z,0.92
2024-04-16T07:25:32.625Z,0.74
2024-04-16T07:26:32.702Z,0.75
2024-04-16T07:27:32.803Z,0.59
2024-04-16T07:28:33.070Z,0.61
2024-04-16T07:29:32.927Z,0.81
2024-04-16T07:30:33.023Z,0.82
2024-04-16T07:31:39.016Z,0.84
2024-04-16T07:32:34.244Z,0.78
2024-04-16T07:33:33.298Z,0.94
2024-04-16T07:34:33.157Z,1.56
2024-04-16T07:35:33.259Z,1.07
2024-04-16T07:36:33.249Z,1.91
2024-04-16T07:37:33.327Z,1.46
2024-04-16T07:38:33.375Z,1.68
2024-04-16T07:39:33.491Z,1.73
2024-04-16T07:40:33.568Z,1.87
2024-04-16T07:41:34.004Z,1.31
2024-04-16T07:42:33.709Z,2.31
2024-04-16T07:43:33.826Z,1.47
2024-04-16T07:44:34.774Z,1.56
2024-04-16T07:45:34.064Z,10.82
2024-04-16T07:46:33.912Z,21.73
2024-04-16T07:47:33.914Z,19.75
2024-04-16T07:48:33.797Z,17.21
2024-04-16T07:49:33.812Z,14.16
2024-04-16T07:50:33.800Z,13.18
2024-04-16T07:51:33.887Z,10.06
2024-04-16T07:52:33.838Z,14.06
2024-04-16T07:53:33.842Z,14.32
2024-04-16T07:54:33.825Z,10.48
2024-04-16T07:55:33.986Z,7.86
2024-04-16T07:56:33.953Z,9.88
2024-04-16T07:57:34.093Z,9.19
2024-04-16T07:58:34.166Z,6.46
2024-04-16T07:59:34.239Z,8.23
2024-04-16T08:00:34.316Z,9.83
2024-04-16T08:01:35.974Z,9.44
2024-04-16T08:02:34.437Z,7.62
2024-04-16T08:03:34.523Z,6.72
2024-04-16T08:04:34.596Z,6.06
2024-04-16T08:05:34.548Z,6.70
2024-04-16T08:06:34.629Z,8.03
2024-04-16T08:07:34.721Z,6.26
2024-04-16T08:08:36.384Z,6.80
2024-04-16T08:09:34.745Z,4.81
2024-04-16T08:10:34.830Z,3.91
2024-04-16T08:11:34.906Z,5.08
2024-04-16T08:12:34.920Z,5.84
2024-04-16T08:13:34.923Z,3.75
2024-04-16T08:14:34.983Z,4.42
2024-04-16T08:15:35.385Z,4.57
2024-04-16T08:16:35.111Z,5.86
2024-04-16T08:17:35.259Z,5.69
2024-04-16T08:18:35.218Z,5.30
2024-04-16T08:19:35.243Z,7.05
2024-04-16T08:20:35.233Z,4.52
2024-04-16T08:21:35.282Z,4.41
2024-04-16T08:22:35.302Z,5.11
2024-04-16T08:23:35.363Z,5.93
2024-04-16T08:24:35.359Z,6.03
2024-04-16T08:25:35.546Z,4.50
2024-04-16T08:26:35.485Z,3.32
2024-04-16T08:27:35.490Z,2.75
2024-04-16T08:28:35.725Z,4.52
2024-04-16T08:29:35.545Z,3.06
2024-04-16T08:30:35.648Z,4.00
2024-04-16T08:31:36.219Z,3.51
2024-04-16T08:32:36.067Z,3.00
2024-04-16T08:33:35.918Z,3.85
2024-04-16T08:34:35.915Z,3.40
2024-04-16T08:35:35.854Z,6.12
2024-04-16T08:36:35.999Z,13.95
2024-04-16T08:37:36.093Z,7.92
2024-04-16T08:38:36.128Z,6.99
2024-04-16T08:39:36.260Z,4.97
2024-04-16T08:40:36.280Z,2.84
2024-04-16T08:41:36.446Z,3.46
2024-04-16T08:42:36.519Z,3.97
2024-04-16T08:43:36.677Z,3.71
2024-04-16T08:44:36.694Z,3.29
2024-04-16T08:45:38.474Z,2.25
2024-04-16T08:46:36.870Z,3.12
2024-04-16T08:47:37.342Z,3.11
2024-04-16T08:48:36.864Z,3.78
2024-04-16T08:49:37.955Z,3.46
2024-04-16T08:50:37.527Z,3.43
2024-04-16T08:51:36.961Z,3.51
2024-04-16T08:52:37.064Z,3.66
2024-04-16T08:53:37.022Z,4.17
2024-04-16T08:54:37.106Z,3.65
2024-04-16T08:55:37.154Z,1.71
2024-04-16T08:56:37.156Z,2.07
2024-04-16T08:57:37.514Z,2.69
2024-04-16T08:58:37.328Z,3.10
2024-04-16T08:59:37.277Z,2.13
2024-04-16T09:00:37.391Z,2.12
2024-04-16T09:01:38.095Z,1.59
2024-04-16T09:02:37.458Z,1.55
2024-04-16T09:03:37.616Z,1.49
2024-04-16T09:04:37.556Z,1.62
2024-04-16T09:05:37.526Z,1.94
2024-04-16T09:06:37.538Z,1.99
2024-04-16T09:07:37.678Z,1.74
2024-04-16T09:08:37.738Z,1.85
2024-04-16T09:09:37.784Z,1.54
2024-04-16T09:10:38.084Z,1.74
2024-04-16T09:11:38.111Z,1.57
2024-04-16T09:12:38.074Z,1.71
2024-04-16T09:13:38.232Z,1.71
2024-04-16T09:14:38.253Z,1.10
2024-04-16T09:15:38.266Z,2.24
2024-04-16T09:16:38.435Z,1.46
2024-04-16T09:17:38.492Z,1.67
2024-04-16T09:18:38.531Z,1.62
2024-04-16T09:19:38.853Z,1.36
2024-04-16T09:20:38.701Z,1.16
2024-04-16T09:21:38.752Z,1.35
2024-04-16T09:22:38.896Z,1.09
2024-04-16T09:23:38.952Z,1.27
2024-04-16T09:24:39.237Z,1.12
2024-04-16T09:25:39.218Z,1.33
2024-04-16T09:26:39.240Z,1.15
2024-04-16T09:27:39.616Z,0.71
2024-04-16T09:28:39.446Z,0.90
2024-04-16T09:29:39.536Z,1.03
2024-04-16T09:30:39.558Z,1.06
2024-04-16T09:31:39.826Z,0.79
2024-04-16T09:32:39.746Z,0.68
2024-04-16T09:33:39.881Z,0.89
2024-04-16T09:34:39.854Z,0.65
2024-04-16T09:35:40.043Z,0.81
2024-04-16T09:36:39.972Z,0.80
2024-04-16T09:37:42.436Z,0.41
2024-04-16T09:38:41.099Z,0.68
2024-04-16T09:39:40.107Z,0.83
2024-04-16T09:40:40.173Z,0.89
2024-04-16T09:41:40.340Z,0.88
2024-04-16T09:42:40.717Z,1.03
2024-04-16T09:43:40.196Z,1.07
2024-04-16T09:44:40.073Z,1.63
2024-04-16T09:45:40.149Z,1.39
2024-04-16T09:46:40.233Z,1.52
2024-04-16T09:47:40.586Z,1.83
2024-04-16T09:48:40.179Z,1.90
2024-04-16T09:49:50.421Z,2.37
2024-04-16T09:50:49.860Z,1.62
2024-04-16T09:51:41.114Z,1.04
2024-04-16T09:52:40.686Z,0.66
2024-04-16T09:54:30.886Z,1.72
2024-04-16T09:55:30.922Z,1.17
2024-04-16T09:56:30.834Z,0.94
2024-04-16T09:57:30.916Z,1.05
2024-04-16T09:58:31.553Z,0.76
2024-04-16T09:59:44.233Z,0.58
2024-04-16T10:00:44.240Z,1.06
2024-04-16T10:01:44.218Z,0.87
2024-04-16T10:02:44.275Z,1.32
2024-04-16T10:03:44.503Z,0.68
2024-04-16T10:04:44.411Z,0.52
2024-04-16T10:05:44.260Z,0.38
2024-04-16T10:06:44.294Z,0.60
2024-04-16T10:07:44.320Z,0.66
2024-04-16T10:08:44.475Z,0.66
2024-04-16T10:09:44.204Z,1.18
2024-04-16T10:10:44.492Z,0.80
2024-04-16T10:11:44.372Z,0.75
2024-04-16T10:12:44.259Z,0.77
2024-04-16T10:13:44.288Z,0.58
2024-04-16T10:14:44.226Z,0.43
2024-04-16T10:15:44.872Z,0.73
2024-04-16T10:16:44.317Z,0.71
2024-04-16T10:17:44.346Z,0.72
2024-04-16T10:18:44.266Z,0.43
2024-04-16T10:19:47.250Z,0.63
2024-04-16T10:20:44.270Z,0.90
2024-04-16T10:21:44.219Z,0.82
2024-04-16T10:22:48.477Z,0.88
2024-04-16T10:23:45.248Z,0.61
2024-04-16T10:24:44.234Z,0.59
2024-04-16T10:25:44.251Z,0.44
2024-04-16T10:26:44.233Z,0.54
2024-04-16T10:27:44.343Z,0.49
2024-04-16T10:28:45.095Z,0.51
2024-04-16T10:29:44.334Z,0.90
2024-04-16T10:30:44.349Z,0.98
2024-04-16T10:31:44.362Z,0.64
2024-04-16T10:32:44.338Z,0.48
2024-04-16T10:33:44.342Z,0.42
2024-04-16T10:34:44.519Z,0.65
2024-04-16T10:35:45.420Z,0.48
2024-04-16T10:36:44.523Z,0.84
2024-04-16T10:37:44.713Z,0.75
2024-04-16T10:38:45.096Z,1.08
2024-04-16T10:39:44.642Z,0.74
2024-04-16T10:40:44.818Z,0.66
2024-04-16T10:41:44.745Z,0.88
2024-04-16T10:42:44.776Z,1.05
2024-04-16T10:43:44.928Z,1.31
2024-04-16T10:44:44.896Z,0.73
2024-04-16T10:45:44.937Z,0.93
2024-04-16T10:46:45.085Z,0.96
2024-04-16T10:47:45.117Z,1.36
2024-04-16T10:48:45.536Z,0.76
2024-04-16T10:49:45.312Z,1.06
2024-04-16T10:50:45.296Z,2.54
2024-04-16T10:51:45.340Z,1.36
2024-04-16T10:52:45.446Z,0.88
2024-04-16T10:53:45.565Z,1.05
2024-04-16T10:54:45.623Z,0.70
2024-04-16T10:55:45.778Z,1.05
2024-04-16T10:56:45.852Z,1.08
2024-04-16T10:57:45.935Z,1.09
2024-04-16T10:58:46.029Z,0.86
2024-04-16T10:59:54.349Z,1.16
2024-04-16T11:00:47.055Z,0.68
2024-04-16T11:01:46.064Z,0.81
2024-04-16T11:02:46.059Z,1.09
2024-04-16T11:03:46.121Z,1.04
2024-04-16T11:04:46.114Z,0.70
2024-04-16T11:05:46.071Z,0.70
2024-04-16T11:06:46.147Z,1.04
2024-04-16T11:07:46.127Z,0.84
2024-04-16T11:08:46.596Z,1.29
2024-04-16T11:09:46.083Z,0.89
2024-04-16T11:10:46.236Z,1.34
2024-04-16T11:11:46.133Z,1.44
2024-04-16T11:12:47.220Z,1.24
2024-04-16T11:13:46.223Z,1.16
2024-04-16T11:14:46.183Z,1.23
2024-04-16T11:15:46.209Z,1.38
2024-04-16T11:16:46.282Z,1.42
2024-04-16T11:17:46.367Z,1.45
2024-04-16T11:18:46.511Z,1.36
2024-04-16T11:19:46.606Z,2.07
2024-04-16T11:20:46.616Z,0.91
2024-04-16T11:21:46.666Z,0.91
2024-04-16T11:22:46.883Z,0.62
2024-04-16T11:23:47.018Z,1.38
2024-04-16T11:24:46.966Z,1.28
2024-04-16T11:25:47.126Z,0.63
2024-04-16T11:26:47.184Z,1.07
2024-04-16T11:27:47.230Z,1.78
2024-04-16T11:28:47.759Z,1.50
2024-04-16T11:29:47.510Z,1.48
2024-04-16T11:30:47.575Z,2.11
2024-04-16T11:31:47.658Z,2.27
2024-04-16T11:32:47.837Z,1.09
2024-04-16T11:33:48.717Z,1.65
2024-04-16T11:34:48.313Z,0.99
2024-04-16T11:35:48.065Z,1.28
2024-04-16T11:36:48.068Z,0.99
2024-04-16T11:37:48.330Z,1.02
2024-04-16T11:38:48.291Z,1.52
2024-04-16T11:39:48.355Z,0.84
2024-04-16T11:40:56.600Z,1.31
2024-04-16T11:41:49.474Z,0.73
2024-04-16T11:42:48.595Z,1.76
2024-04-16T11:43:48.577Z,1.23
2024-04-16T11:44:48.471Z,1.18
2024-04-16T11:45:48.484Z,0.88
2024-04-16T11:46:48.648Z,1.37
2024-04-16T11:47:48.580Z,1.84
2024-04-16T11:48:48.503Z,1.09
2024-04-16T11:49:48.541Z,1.19
2024-04-16T11:50:48.463Z,1.12
2024-04-16T11:51:48.470Z,0.82
2024-04-16T11:52:48.503Z,1.09
2024-04-16T11:53:48.501Z,1.60
2024-04-16T11:54:48.493Z,0.57
2024-04-16T11:55:48.541Z,1.32
2024-04-16T11:56:48.518Z,1.52
2024-04-16T11:58:39.287Z,1.35
2024-04-16T11:59:39.207Z,0.95
2024-04-16T12:00:39.221Z,1.73
2024-04-16T12:01:39.342Z,0.71
2024-04-16T12:02:39.219Z,2.18
2024-04-16T12:03:39.321Z,0.95
2024-04-16T12:04:39.288Z,0.52
2024-04-16T12:05:39.283Z,1.42
2024-04-16T12:06:39.247Z,0.92
2024-04-16T12:07:39.371Z,1.02
2024-04-16T12:08:39.272Z,1.11
2024-04-16T12:09:39.373Z,2.76
2024-04-16T12:10:39.378Z,1.44
2024-04-16T12:11:39.359Z,1.17
2024-04-16T12:12:39.305Z,0.84
2024-04-16T12:13:39.270Z,0.93
2024-04-16T12:14:39.301Z,1.32
2024-04-16T12:15:39.261Z,0.51
2024-04-16T12:16:39.334Z,1.20
2024-04-16T12:17:39.545Z,0.92
2024-04-16T12:18:39.290Z,0.87
2024-04-16T12:19:39.389Z,1.20
2024-04-16T12:20:39.282Z,1.11
2024-04-16T12:21:39.285Z,0.87
2024-04-16T12:22:39.337Z,0.83
2024-04-16T12:24:33.948Z,0.95
2024-04-16T12:25:33.977Z,0.83
2024-04-16T12:26:33.913Z,0.34
2024-04-16T12:27:33.961Z,0.92
2024-04-16T12:28:33.962Z,0.76
2024-04-16T12:29:33.936Z,0.68
2024-04-16T12:30:33.948Z,0.62
2024-04-16T12:31:34.026Z,1.05
2024-04-16T12:32:34.015Z,0.72
2024-04-16T12:33:34.201Z,0.65
2024-04-16T12:34:34.049Z,0.58
2024-04-16T12:35:34.029Z,0.37
2024-04-16T12:36:34.060Z,0.53
2024-04-16T12:37:34.059Z,0.29
2024-04-16T12:38:34.041Z,0.58
2024-04-16T12:39:34.011Z,0.67
2024-04-16T12:40:34.107Z,0.49
2024-04-16T12:41:34.005Z,0.79
2024-04-16T12:42:34.020Z,0.68
2024-04-16T12:43:34.056Z,0.63
2024-04-16T12:44:34.023Z,0.71
2024-04-16T12:45:34.107Z,0.90
2024-04-16T12:46:34.062Z,0.43
2024-04-16T12:47:34.093Z,0.44
2024-04-16T12:48:34.165Z,0.41
2024-04-16T12:49:34.074Z,0.37
2024-04-16T12:50:34.013Z,0.38
2024-04-16T12:51:34.027Z,0.66
2024-04-16T12:52:34.077Z,0.42
2024-04-16T12:53:34.034Z,0.31
2024-04-16T12:54:34.030Z,0.77
2024-04-16T12:55:34.107Z,0.58
2024-04-16T12:56:34.076Z,0.69
2024-04-16T12:57:34.025Z,1.08
2024-04-16T12:58:34.088Z,1.31
2024-04-16T12:59:34.062Z,0.91
2024-04-16T13:00:34.140Z,0.70
2024-04-16T13:01:34.621Z,1.02
2024-04-16T13:02:34.148Z,0.61
2024-04-16T13:03:34.155Z,0.78
2024-04-16T13:04:34.085Z,1.01
2024-04-16T13:05:34.052Z,0.53
2024-04-16T13:06:34.044Z,0.53
2024-04-16T13:07:34.091Z,0.66
2024-04-16T13:08:34.060Z,0.90
2024-04-16T13:09:34.092Z,0.42
2024-04-16T13:10:34.215Z,3.33
2024-04-16T13:11:34.321Z,0.64
2024-04-16T13:12:34.372Z,1.05
2024-04-16T13:13:34.492Z,0.67
2024-04-16T13:14:34.609Z,1.07
2024-04-16T13:15:34.654Z,0.68
2024-04-16T13:16:34.778Z,0.67
2024-04-16T13:17:35.695Z,0.54
2024-04-16T13:18:34.989Z,0.46
2024-04-16T13:19:35.319Z,0.86
2024-04-16T13:20:35.023Z,1.05
2024-04-16T13:21:35.099Z,0.73
2024-04-16T13:23:32.951Z,0.92
2024-04-16T13:24:32.945Z,0.89